createdAt,value
2019-05-26T00:01:38.627Z,95.30
2019-05-26T00:04:09.026Z,95.30
2019-05-26T00:06:39.375Z,95.50
2019-05-26T00:09:10.730Z,95.80
2019-05-26T00:11:43.563Z,96.00
2019-05-26T00:14:13.907Z,95.70
2019-05-26T00:16:44.239Z,96.10
2019-05-26T00:19:14.850Z,96.40
2019-05-26T00:21:45.106Z,96.40
2019-05-26T00:24:15.802Z,96.60
2019-05-26T00:26:46.077Z,96.50
2019-05-26T00:29:16.396Z,96.40
2019-05-26T00:31:46.644Z,96.30
2019-05-26T00:34:23.014Z,95.90
2019-05-26T00:36:53.375Z,95.80
2019-05-26T00:39:24.140Z,96.20
2019-05-26T00:41:54.876Z,96.30
2019-05-26T00:44:25.247Z,95.80
2019-05-26T00:46:55.508Z,96.00
2019-05-26T00:49:25.914Z,95.80
2019-05-26T00:51:56.254Z,96.10
2019-05-26T00:54:26.571Z,96.20
2019-05-26T00:56:56.987Z,95.80
2019-05-26T00:59:27.375Z,96.00
2019-05-26T01:01:57.694Z,95.80
2019-05-26T01:04:29.491Z,96.00
2019-05-26T01:06:59.817Z,96.00
2019-05-26T01:09:30.155Z,96.10
2019-05-26T01:12:03.836Z,96.00
2019-05-26T01:14:38.023Z,96.00
2019-05-26T01:17:08.398Z,95.80
2019-05-26T01:19:39.061Z,95.60
2019-05-26T01:22:13.778Z,95.60
2019-05-26T01:24:56.366Z,95.30
2019-05-26T01:27:27.103Z,95.80
2019-05-26T01:29:57.443Z,96.10
2019-05-26T01:32:27.704Z,96.10
2019-05-26T01:34:58.026Z,96.10
2019-05-26T01:37:28.464Z,96.40
2019-05-26T01:40:00.306Z,96.20
2019-05-26T01:42:30.638Z,96.10
2019-05-26T01:45:00.957Z,96.20
2019-05-26T01:47:31.327Z,96.30
2019-05-26T01:50:01.758Z,96.20
2019-05-26T01:52:32.486Z,95.90
2019-05-26T01:55:04.689Z,95.90
2019-05-26T01:57:34.941Z,96.00
2019-05-26T02:00:06.612Z,95.90
2019-05-26T02:02:37.478Z,95.80
2019-05-26T02:05:09.833Z,95.90
2019-05-26T02:07:40.134Z,95.90
2019-05-26T02:10:10.975Z,95.70
2019-05-26T02:12:41.257Z,95.50
2019-05-26T02:15:12.066Z,95.40
2019-05-26T02:17:42.445Z,95.60
2019-05-26T02:20:13.018Z,95.90
2019-05-26T02:22:43.273Z,95.90
2019-05-26T02:25:17.870Z,95.70
2019-05-26T02:27:49.731Z,95.80
2019-05-26T02:30:20.141Z,95.30
2019-05-26T02:32:52.262Z,95.60
2019-05-26T02:35:22.726Z,95.40
2019-05-26T02:37:53.049Z,95.30
2019-05-26T02:40:24.175Z,95.70
2019-05-26T02:42:54.465Z,95.20
2019-05-26T02:45:25.287Z,95.00
2019-05-26T02:47:55.587Z,95.00
2019-05-26T02:50:26.329Z,95.00
2019-05-26T02:52:56.538Z,95.00
2019-05-26T02:55:26.870Z,94.70
2019-05-26T02:57:57.187Z,95.10
2019-05-26T03:00:42.559Z,95.30
2019-05-26T03:03:14.304Z,95.00
2019-05-26T03:05:46.162Z,94.80
2019-05-26T03:08:16.886Z,94.90
2019-05-26T03:10:52.237Z,95.10
2019-05-26T03:13:22.534Z,95.00
2019-05-26T03:15:55.728Z,94.60
2019-05-26T03:18:28.979Z,95.00
2019-05-26T03:21:02.277Z,94.90
2019-05-26T03:23:34.213Z,94.80
2019-05-26T03:26:09.561Z,95.30
2019-05-26T03:28:39.890Z,94.50
2019-05-26T03:31:10.151Z,94.90
2019-05-26T03:33:41.911Z,94.40
2019-05-26T03:36:12.252Z,94.50
2019-05-26T03:38:42.551Z,94.70
2019-05-26T03:41:12.842Z,94.70
2019-05-26T03:43:43.163Z,94.90
2019-05-26T03:46:20.869Z,95.00
2019-05-26T03:48:52.658Z,95.00
2019-05-26T03:51:22.922Z,95.10
2019-05-26T03:53:53.206Z,95.30
2019-05-26T03:56:24.703Z,94.60
2019-05-26T03:58:54.978Z,94.30
2019-05-26T04:01:27.194Z,94.60
2019-05-26T04:03:57.513Z,94.40
2019-05-26T04:06:27.834Z,94.30
2019-05-26T04:08:58.145Z,94.60
2019-05-26T04:11:28.464Z,94.70
2019-05-26T04:13:58.727Z,94.70
2019-05-26T04:16:28.965Z,95.30
2019-05-26T04:18:59.576Z,95.20
2019-05-26T04:21:29.887Z,95.70
2019-05-26T04:24:00.209Z,95.80
2019-05-26T04:26:30.437Z,95.60
2019-05-26T04:29:00.679Z,95.40
2019-05-26T04:31:33.751Z,94.60
2019-05-26T04:34:04.091Z,94.50
2019-05-26T04:36:34.357Z,95.30
2019-05-26T04:39:06.821Z,95.80
2019-05-26T04:41:38.702Z,96.00
2019-05-26T04:44:08.950Z,95.90
2019-05-26T04:46:39.215Z,95.20
2019-05-26T04:49:10.554Z,95.10
2019-05-26T04:51:40.926Z,95.30
2019-05-26T04:54:11.215Z,95.40
2019-05-26T04:56:43.027Z,95.50
2019-05-26T04:59:13.318Z,95.50
2019-05-26T05:01:43.650Z,95.60
2019-05-26T05:04:13.910Z,95.10
2019-05-26T05:06:44.343Z,95.60
2019-05-26T05:09:18.571Z,95.60
2019-05-26T05:11:48.922Z,95.90
2019-05-26T05:14:19.662Z,95.90
2019-05-26T05:16:49.994Z,96.40
2019-05-26T05:19:21.434Z,96.30
2019-05-26T05:21:51.745Z,96.10
2019-05-26T05:24:22.106Z,96.30
2019-05-26T05:26:52.498Z,96.20
2019-05-26T05:29:22.836Z,96.10
2019-05-26T05:31:53.187Z,96.40
2019-05-26T05:34:23.519Z,96.40
2019-05-26T05:36:53.848Z,95.80
2019-05-26T05:39:24.174Z,96.20
2019-05-26T05:41:54.835Z,96.60
2019-05-26T05:44:25.165Z,96.50
2019-05-26T05:46:55.888Z,96.40
2019-05-26T05:49:26.147Z,96.60
2019-05-26T05:51:56.724Z,96.40
2019-05-26T05:54:26.986Z,95.80
2019-05-26T05:56:57.366Z,95.60
2019-05-26T05:59:27.708Z,95.50
2019-05-26T06:01:59.563Z,95.90
2019-05-26T06:04:29.900Z,95.80
2019-05-26T06:07:00.529Z,95.40
2019-05-26T06:09:30.870Z,95.30
2019-05-26T06:12:02.181Z,94.90
2019-05-26T06:15:09.957Z,94.20
2019-05-26T06:17:41.301Z,94.80
2019-05-26T06:20:11.973Z,93.50
2019-05-26T06:22:42.223Z,93.30
2019-05-26T06:25:12.470Z,93.10
2019-05-26T06:27:42.808Z,94.40
2019-05-26T06:30:13.187Z,93.80
2019-05-26T06:32:43.527Z,93.10
2019-05-26T06:35:15.768Z,92.70
2019-05-26T06:37:46.088Z,92.40
2019-05-26T06:40:16.931Z,92.20
2019-05-26T06:42:47.270Z,91.30
2019-05-26T06:45:20.221Z,91.00
2019-05-26T06:47:52.033Z,91.20
2019-05-26T06:50:22.362Z,90.50
2019-05-26T06:52:54.488Z,89.70
2019-05-26T06:55:24.743Z,90.10
2019-05-26T06:57:56.484Z,88.50
2019-05-26T07:00:26.910Z,88.90
2019-05-26T07:02:58.796Z,89.00
2019-05-26T07:05:29.068Z,89.60
2019-05-26T07:07:59.388Z,87.70
2019-05-26T07:10:32.253Z,87.90
2019-05-26T07:13:02.572Z,88.70
2019-05-26T07:15:32.899Z,88.30
2019-05-26T07:18:03.221Z,87.40
2019-05-26T07:20:33.481Z,86.00
2019-05-26T07:23:07.092Z,85.00
2019-05-26T07:25:37.677Z,85.40
2019-05-26T07:28:08.005Z,83.20
2019-05-26T07:30:38.315Z,82.20
2019-05-26T07:33:10.495Z,83.10
2019-05-26T07:35:41.197Z,82.90
2019-05-26T07:38:11.486Z,82.60
2019-05-26T07:40:41.721Z,79.60
2019-05-26T07:43:12.098Z,79.10
2019-05-26T07:45:42.490Z,81.70
2019-05-26T07:48:12.750Z,79.50
2019-05-26T07:50:43.051Z,77.80
2019-05-26T07:53:16.711Z,78.40
2019-05-26T07:55:46.953Z,77.80
2019-05-26T07:58:22.362Z,79.50
2019-05-26T08:00:52.675Z,78.60
2019-05-26T08:03:22.956Z,76.30
2019-05-26T08:05:53.208Z,74.80
2019-05-26T08:08:26.909Z,76.70
2019-05-26T08:10:57.247Z,76.30
2019-05-26T08:13:27.588Z,76.20
2019-05-26T08:15:57.862Z,75.40
2019-05-26T08:18:28.112Z,74.30
2019-05-26T08:20:58.446Z,73.80
2019-05-26T08:23:28.777Z,73.70
2019-05-26T08:26:00.750Z,72.50
2019-05-26T08:28:36.509Z,74.00
2019-05-26T08:31:06.855Z,72.70
2019-05-26T08:33:37.166Z,71.60
2019-05-26T08:36:07.484Z,72.40
2019-05-26T08:38:37.756Z,72.60
2019-05-26T08:41:08.067Z,72.70
2019-05-26T08:43:38.318Z,70.00
2019-05-26T08:46:08.659Z,68.90
2019-05-26T08:48:39.047Z,68.00
2019-05-26T08:51:10.722Z,69.80
2019-05-26T08:53:40.950Z,67.60
